Seago Piraeus — OXVD2 — position and weather

sailwx.info

Track history (hours):
 
Tides and Currents Weather Stations Pressure Air Temp Water Temp Dewpoint Dewpoint Depression Visibility Wind Speed Wind Dir Waves Ship Positions

Seago Piraeus

Last reported at 2017-May-23 04:23 UTC. Time now 2017-May-23 17:05 UTC.
Position N 34°36' E 033°06'.

Length 294 m; draft 12.1 m.

Type: Ship (hazmat cat A). MMSI: 219117000.

Date/timePositionNaut miles runAvg speedWind from/ knotsBaromVisibWave heightAir tempDewpointWater temp
2017-May-23 04:23N 34°36' E 033°06'410.9
2017-May-23 04:01N 34°39' E 033°03'2 3.8
2017-May-23 03:29N 34°39' E 033°01'0 0.0
2017-May-23 02:59N 34°39' E 033°01'0 0.0
2017-May-23 02:29N 34°39' E 033°01'0 0.0
2017-May-23 01:59N 34°39' E 033°01'0 0.0
2017-May-23 01:29N 34°39' E 033°01'0 0.0
2017-May-23 00:59N 34°39' E 033°01'0 0.0
2017-May-23 00:29N 34°39' E 033°01'0 0.0
2017-May-22 23:59N 34°39' E 033°01'0 0.0
2017-May-22 23:29N 34°39' E 033°01'0 0.0
2017-May-22 22:59N 34°39' E 033°01'0 0.0
2017-May-22 22:29N 34°39' E 033°01'0 0.0
2017-May-22 21:59N 34°39' E 033°01'0 0.0
2017-May-22 21:29N 34°39' E 033°01'0 0.0
2017-May-22 20:59N 34°39' E 033°01'0 0.0
2017-May-22 20:29N 34°39' E 033°01'0 0.0
2017-May-22 19:59N 34°39' E 033°01'0 0.0
2017-May-22 19:29N 34°39' E 033°01'0 0.0
2017-May-22 18:59N 34°39' E 033°01'0 0.0
2017-May-22 18:29N 34°39' E 033°01'0 0.0
2017-May-22 17:59N 34°39' E 033°01'0 0.0
2017-May-22 17:29N 34°39' E 033°01'0 0.0
2017-May-22 16:59N 34°39' E 033°01'0 0.0
2017-May-22 16:29N 34°39' E 033°01'0 0.0
2017-May-22 15:59N 34°39' E 033°01'0 0.0
2017-May-22 15:29N 34°39' E 033°01'0 0.0
2017-May-22 14:59N 34°39' E 033°01'0 0.0
2017-May-22 13:59N 34°39' E 033°01'0 0.0
2017-May-22 13:29N 34°39' E 033°01'0 0.0
2017-May-22 12:59N 34°39' E 033°01'0 0.0
2017-May-22 12:29N 34°39' E 033°01'0 0.0
2017-May-22 11:59N 34°39' E 033°01'0 0.0
2017-May-22 11:30N 34°39' E 033°01'1 2.4
2017-May-22 11:00N 34°39' E 033°02'611.7
2017-May-22 10:30N 34°34' E 033°07'7418.0
2017-May-22 06:24N 34°32' E 031°37'1517.9
2017-May-22 05:34N 34°33' E 031°19'118.0
2017-May-22 05:30N 34°33' E 031°18'918.1
2017-May-22 05:00N 34°33' E 031°06'65418.2
2017-May-20 17:01N 35°48' E 017°51'018.9
2017-May-20 17:00N 35°49' E 017°51'3118.8
2017-May-20 15:20N 35°55' E 017°13'618.7
2017-May-20 15:00N 35°57' E 017°06'1018.9
2017-May-20 14:30N 35°59' E 016°54'1918.9
2017-May-20 13:30N 36°03' E 016°31'918.8
2017-May-20 13:00N 36°06' E 016°20'6118.7
2017-May-20 09:45N 36°20' E 015°07'519.1
2017-May-20 09:28N 36°22' E 015°01'919.2
2017-May-20 08:59N 36°24' E 014°50'919.4
2017-May-20 08:30N 36°27' E 014°39'1019.7
2017-May-20 08:00N 36°30' E 014°27'919.3
2017-May-20 07:30N 36°33' E 014°16'1019.0
2017-May-20 07:00N 36°36' E 014°04'1019.1
2017-May-20 06:30N 36°38' E 013°53'919.0
2017-May-20 06:00N 36°41' E 013°41'2319.2
2017-May-20 04:47N 36°48' E 013°14'619.4
2017-May-20 04:30N 36°50' E 013°07'67619.2
2017-May-18 17:22N 36°27' W 000°55'3519.7
2017-May-18 15:35N 36°20' W 001°37'819.8
2017-May-18 15:11N 36°18' W 001°47'2628.2
2017-May-18 14:15N 36°14' W 002°19'3015.9
2017-May-18 12:22N 36°11' W 002°56'719.7
2017-May-18 12:00N 36°10' W 003°05'9220.6
2017-May-18 07:31N 36°02' W 004°59'120.0
2017-May-18 07:29N 36°02' W 004°60'1020.4
2017-May-18 07:00N 36°01' W 005°12'1121.6
2017-May-18 06:30N 35°58' W 005°24'2618.9
2017-May-18 05:09N 35°54' W 005°56'519.1
2017-May-18 04:54N 35°53' W 006°01'919.2
2017-May-18 04:27N 35°53' W 006°12'9219.6
2017-May-17 23:45N 36°16' W 008°03'519.4
2017-May-17 23:28N 36°18' W 008°09'2319.3
2017-May-17 22:18N 36°24' W 008°36'518.9
2017-May-17 22:00N 36°26' W 008°42'919.0
2017-May-17 21:30N 36°29' W 008°54'918.8
2017-May-17 21:00N 36°31' W 009°05'918.7
2017-May-17 20:30N 36°34' W 009°16'919.1
2017-May-17 20:00N 36°40' W 009°26'1019.4
2017-May-17 19:30N 36°47' W 009°33'3019.8
2017-May-17 18:00N 37°16' W 009°41'2719.6
2017-May-17 16:38N 37°43' W 009°48'219.5
2017-May-17 16:30N 37°45' W 009°49'1019.6
2017-May-17 16:00N 37°54' W 009°52'1019.6
2017-May-17 15:31N 38°04' W 009°54'1019.6
2017-May-17 15:00N 38°14' W 009°57'1019.7
2017-May-17 14:30N 38°23' W 009°59'2019.6
2017-May-17 13:30N 38°42' W 010°05'1019.6
2017-May-17 13:00N 38°52' W 010°05'1019.9
2017-May-17 12:30N 39°02' W 010°06'1020.1
2017-May-17 12:00N 39°12' W 010°06'1019.7
2017-May-17 11:30N 39°22' W 010°07'1019.8
2017-May-17 11:01N 39°32' W 010°07'1119.6
2017-May-17 10:25N 39°43' W 010°07'919.8
2017-May-17 09:57N 39°53' W 010°07'1619.9
2017-May-17 09:07N 40°09' W 010°07'220.0
2017-May-17 09:00N 40°11' W 010°07'1320.1
2017-May-17 08:20N 40°25' W 010°07'919.3
2017-May-17 07:54N 40°33' W 010°05'819.6
2017-May-17 07:31N 40°41' W 010°04'54018.3
2017-May-16 01:59N 49°02' W 005°21'919.7
2017-May-16 01:30N 49°08' W 005°10'1118.7
2017-May-16 00:54N 49°14' W 004°56'718.2
2017-May-16 00:30N 49°19' W 004°47'918.0
2017-May-16 00:00N 49°24' W 004°36'917.8
2017-May-15 23:29N 49°29' W 004°24'917.5
2017-May-15 23:00N 49°33' W 004°13'917.1
2017-May-15 22:28N 49°37' W 003°60'916.7
2017-May-15 21:55N 49°42' W 003°48'716.4
2017-May-15 21:28N 49°46' W 003°38'716.2
2017-May-15 21:00N 49°49' W 003°28'816.2
2017-May-15 20:30N 49°53' W 003°17'816.4
2017-May-15 20:00N 49°57' W 003°06'816.7
2017-May-15 19:31N 49°60' W 002°54'917.3
2017-May-15 19:00N 50°02' W 002°41'5619.4
2017-May-15 16:07N 50°19' W 001°17'220.3
2017-May-15 16:00N 50°20' W 001°14'1120.3
2017-May-15 15:29N 50°23' W 000°58'919.2
2017-May-15 15:00N 50°25' W 000°44'1818.3
2017-May-15 14:00N 50°29' W 000°16'917.6
2017-May-15 13:30N 50°31' W 000°03'817.0
2017-May-15 13:00N 50°33' E 000°10'816.4
2017-May-15 12:30N 50°35' E 000°23'816.1
2017-May-15 12:00N 50°37' E 000°35'815.8
2017-May-15 11:30N 50°42' E 000°45'816.3
2017-May-15 11:00N 50°47' E 000°55'917.1
2017-May-15 10:30N 50°52' E 001°06'918.1
2017-May-15 10:00N 50°58' E 001°16'1019.0
2017-May-15 09:30N 51°04' E 001°29'1019.4
2017-May-15 09:00N 51°10' E 001°40'918.6
2017-May-15 08:30N 51°17' E 001°50'917.5
2017-May-15 08:00N 51°24' E 001°59'816.6
2017-May-15 07:30N 51°21' E 002°11'816.7
2017-May-15 07:00N 51°22' E 002°24'917.2
2017-May-15 06:30N 51°23' E 002°38'510.9
2017-May-15 06:00N 51°24' E 002°47'613.0
2017-May-15 05:30N 51°25' E 002°57'816.0
2017-May-15 05:01N 51°24' E 003°10'815.8
2017-May-15 04:30N 51°25' E 003°22'713.8
2017-May-15 04:00N 51°26' E 003°33'4 8.5
2017-May-15 03:30N 51°26' E 003°40'611.3
2017-May-15 03:00N 51°22' E 003°45'510.2
2017-May-15 02:30N 51°21' E 003°54'510.4
2017-May-15 02:00N 51°26' E 003°58'4 8.2
2017-May-15 01:30N 51°23' E 004°03'510.5
2017-May-15 01:00N 51°24' E 004°11'4 8.8
2017-May-15 00:30N 51°21' E 004°16'0 0.6
2017-May-15 00:01N 51°21' E 004°16'0 0.0
2017-May-14 23:30N 51°21' E 004°16'0 0.0
2017-May-14 23:01N 51°21' E 004°16'0 0.0
2017-May-14 22:30N 51°21' E 004°16'0 0.0
2017-May-14 22:01N 51°21' E 004°16'0 0.0
2017-May-14 21:30N 51°21' E 004°16'0 0.0
2017-May-14 21:01N 51°21' E 004°16'0 0.0
2017-May-14 20:30N 51°21' E 004°16'0 0.0
2017-May-14 20:00N 51°21' E 004°16'0 0.0
2017-May-14 19:31N 51°21' E 004°16'0 0.0
2017-May-14 19:01N 51°21' E 004°16'0 0.0
2017-May-14 18:30N 51°21' E 004°16'0 0.0
2017-May-14 18:01N 51°21' E 004°16'0 0.0
2017-May-14 17:30N 51°21' E 004°16'0 0.0
2017-May-14 17:00N 51°21' E 004°16'0 0.0
2017-May-14 16:30N 51°21' E 004°16'0 0.0
2017-May-14 16:01N 51°21' E 004°16'0 0.0
2017-May-14 15:31N 51°21' E 004°16'0 0.0
2017-May-14 15:01N 51°21' E 004°16'0 0.0
2017-May-14 14:30N 51°21' E 004°16'0 0.0
2017-May-14 13:30N 51°21' E 004°16'0 0.0
2017-May-14 13:01N 51°21' E 004°16'0 0.0
2017-May-14 12:30N 51°21' E 004°16'0 0.0
2017-May-14 12:01N 51°21' E 004°16'0 0.0
2017-May-14 11:31N 51°21' E 004°16'0 0.0
2017-May-14 11:01N 51°21' E 004°16'0 0.0
2017-May-14 10:30N 51°21' E 004°16'0 0.0
2017-May-14 10:00N 51°21' E 004°16'0 0.0
2017-May-14 09:30N 51°21' E 004°16'0 0.0
2017-May-14 09:01N 51°21' E 004°16'0 0.0
2017-May-14 08:30N 51°21' E 004°16'0 0.0
2017-May-14 08:00N 51°21' E 004°16'0 0.0
2017-May-14 07:30N 51°21' E 004°16'0 0.0
2017-May-14 07:00N 51°21' E 004°16'0 0.0
2017-May-14 06:30N 51°21' E 004°16'0 0.0
2017-May-14 06:00N 51°21' E 004°16'0 0.0
2017-May-14 05:31N 51°21' E 004°16'0 0.0
2017-May-14 05:00N 51°21' E 004°16'0 0.0
2017-May-14 04:30N 51°21' E 004°16'0 0.0
2017-May-14 04:00N 51°21' E 004°16'0 0.0
2017-May-14 03:30N 51°21' E 004°16'0 0.0
2017-May-14 03:00N 51°21' E 004°16'0 0.4
2017-May-14 02:30N 51°21' E 004°16'3 5.1
2017-May-14 02:01N 51°22' E 004°13'510.2
2017-May-14 01:30N 51°22' E 004°05'510.4
2017-May-14 01:01N 51°25' E 003°58'713.6
2017-May-14 00:30N 51°21' E 003°50'713.1
2017-May-14 00:01N 51°25' E 003°42'510.6
2017-May-13 23:30N 51°25' E 003°33'816.6
2017-May-13 23:00N 51°24' E 003°20'817.0
2017-May-13 22:30N 51°24' E 003°07'510.2
2017-May-13 22:00N 51°27' E 003°00'1019.2
2017-May-13 21:30N 51°35' E 003°09'917.7
2017-May-13 21:00N 51°44' E 003°13'5 9.9
2017-May-13 20:31N 51°48' E 003°16'814.9
2017-May-13 20:00N 51°56' E 003°19'815.3
2017-May-13 19:30N 52°03' E 003°21'714.7
2017-May-13 19:00N 52°10' E 003°22'714.5
2017-May-13 18:30N 52°17' E 003°25'714.3
2017-May-13 18:00N 52°24' E 003°28'714.0
2017-May-13 17:30N 52°31' E 003°29'713.6
2017-May-13 17:00N 52°38' E 003°31'713.8
2017-May-13 16:30N 52°44' E 003°38'713.7
2017-May-13 16:00N 52°49' E 003°45'1514.2
2017-May-13 14:57N 53°00' E 004°02'715.3
2017-May-13 14:27N 53°05' E 004°12'1515.8
2017-May-13 13:30N 53°16' E 004°28'2014.9
2017-May-13 12:08N 53°31' E 004°51'215.9
2017-May-13 12:00N 53°32' E 004°55'815.6
2017-May-13 11:30N 53°34' E 005°07'815.1
2017-May-13 10:59N 53°37' E 005°20'815.0
2017-May-13 10:27N 53°39' E 005°32'715.0
2017-May-13 09:59N 53°42' E 005°43'713.5
2017-May-13 09:30N 53°44' E 005°54'2 3.8
2017-May-13 09:00N 53°45' E 005°57'5613.1
2017-May-13 04:44N 53°59' E 007°29'  
Track history (hours):
 
Tides and Currents Weather Stations Pressure Air Temp Water Temp Dewpoint Dewpoint Depression Visibility Wind Speed Wind Dir Waves Ship Positions

Seago Piraeus

Last reported at 2017-May-23 04:23 UTC. Time now 2017-May-23 17:05 UTC.
Position N 34°36' E 033°06'.

Length 294 m; draft 12.1 m.

Type: Ship (hazmat cat A). MMSI: 219117000.

Date/timePositionNaut miles runAvg speedWind from/ knotsBaromVisibWave heightAir tempDewpointWater temp
2017-May-23 04:23N 34°36' E 033°06'410.9
2017-May-23 04:01N 34°39' E 033°03'2 3.8
2017-May-23 03:29N 34°39' E 033°01'0 0.0
2017-May-23 02:59N 34°39' E 033°01'0 0.0
2017-May-23 02:29N 34°39' E 033°01'0 0.0
2017-May-23 01:59N 34°39' E 033°01'0 0.0
2017-May-23 01:29N 34°39' E 033°01'0 0.0
2017-May-23 00:59N 34°39' E 033°01'0 0.0
2017-May-23 00:29N 34°39' E 033°01'0 0.0
2017-May-22 23:59N 34°39' E 033°01'0 0.0
2017-May-22 23:29N 34°39' E 033°01'0 0.0
2017-May-22 22:59N 34°39' E 033°01'0 0.0
2017-May-22 22:29N 34°39' E 033°01'0 0.0
2017-May-22 21:59N 34°39' E 033°01'0 0.0
2017-May-22 21:29N 34°39' E 033°01'0 0.0
2017-May-22 20:59N 34°39' E 033°01'0 0.0
2017-May-22 20:29N 34°39' E 033°01'0 0.0
2017-May-22 19:59N 34°39' E 033°01'0 0.0
2017-May-22 19:29N 34°39' E 033°01'0 0.0
2017-May-22 18:59N 34°39' E 033°01'0 0.0
2017-May-22 18:29N 34°39' E 033°01'0 0.0
2017-May-22 17:59N 34°39' E 033°01'0 0.0
2017-May-22 17:29N 34°39' E 033°01'0 0.0
2017-May-22 16:59N 34°39' E 033°01'0 0.0
2017-May-22 16:29N 34°39' E 033°01'0 0.0
2017-May-22 15:59N 34°39' E 033°01'0 0.0
2017-May-22 15:29N 34°39' E 033°01'0 0.0
2017-May-22 14:59N 34°39' E 033°01'0 0.0
2017-May-22 13:59N 34°39' E 033°01'0 0.0
2017-May-22 13:29N 34°39' E 033°01'0 0.0
2017-May-22 12:59N 34°39' E 033°01'0 0.0
2017-May-22 12:29N 34°39' E 033°01'0 0.0
2017-May-22 11:59N 34°39' E 033°01'0 0.0
2017-May-22 11:30N 34°39' E 033°01'1 2.4
2017-May-22 11:00N 34°39' E 033°02'611.7
2017-May-22 10:30N 34°34' E 033°07'7418.0
2017-May-22 06:24N 34°32' E 031°37'1517.9
2017-May-22 05:34N 34°33' E 031°19'118.0
2017-May-22 05:30N 34°33' E 031°18'918.1
2017-May-22 05:00N 34°33' E 031°06'65418.2
2017-May-20 17:01N 35°48' E 017°51'018.9
2017-May-20 17:00N 35°49' E 017°51'3118.8
2017-May-20 15:20N 35°55' E 017°13'618.7
2017-May-20 15:00N 35°57' E 017°06'1018.9
2017-May-20 14:30N 35°59' E 016°54'1918.9
2017-May-20 13:30N 36°03' E 016°31'918.8
2017-May-20 13:00N 36°06' E 016°20'6118.7
2017-May-20 09:45N 36°20' E 015°07'519.1
2017-May-20 09:28N 36°22' E 015°01'919.2
2017-May-20 08:59N 36°24' E 014°50'919.4
2017-May-20 08:30N 36°27' E 014°39'1019.7
2017-May-20 08:00N 36°30' E 014°27'919.3
2017-May-20 07:30N 36°33' E 014°16'1019.0
2017-May-20 07:00N 36°36' E 014°04'1019.1
2017-May-20 06:30N 36°38' E 013°53'919.0
2017-May-20 06:00N 36°41' E 013°41'2319.2
2017-May-20 04:47N 36°48' E 013°14'619.4
2017-May-20 04:30N 36°50' E 013°07'67619.2
2017-May-18 17:22N 36°27' W 000°55'3519.7
2017-May-18 15:35N 36°20' W 001°37'819.8
2017-May-18 15:11N 36°18' W 001°47'2628.2
2017-May-18 14:15N 36°14' W 002°19'3015.9
2017-May-18 12:22N 36°11' W 002°56'719.7
2017-May-18 12:00N 36°10' W 003°05'9220.6
2017-May-18 07:31N 36°02' W 004°59'120.0
2017-May-18 07:29N 36°02' W 004°60'1020.4
2017-May-18 07:00N 36°01' W 005°12'1121.6
2017-May-18 06:30N 35°58' W 005°24'2618.9
2017-May-18 05:09N 35°54' W 005°56'519.1
2017-May-18 04:54N 35°53' W 006°01'919.2
2017-May-18 04:27N 35°53' W 006°12'9219.6
2017-May-17 23:45N 36°16' W 008°03'519.4
2017-May-17 23:28N 36°18' W 008°09'2319.3
2017-May-17 22:18N 36°24' W 008°36'518.9
2017-May-17 22:00N 36°26' W 008°42'919.0
2017-May-17 21:30N 36°29' W 008°54'918.8
2017-May-17 21:00N 36°31' W 009°05'918.7
2017-May-17 20:30N 36°34' W 009°16'919.1
2017-May-17 20:00N 36°40' W 009°26'1019.4
2017-May-17 19:30N 36°47' W 009°33'3019.8
2017-May-17 18:00N 37°16' W 009°41'2719.6
2017-May-17 16:38N 37°43' W 009°48'219.5
2017-May-17 16:30N 37°45' W 009°49'1019.6
2017-May-17 16:00N 37°54' W 009°52'1019.6
2017-May-17 15:31N 38°04' W 009°54'1019.6
2017-May-17 15:00N 38°14' W 009°57'1019.7
2017-May-17 14:30N 38°23' W 009°59'2019.6
2017-May-17 13:30N 38°42' W 010°05'1019.6
2017-May-17 13:00N 38°52' W 010°05'1019.9
2017-May-17 12:30N 39°02' W 010°06'1020.1
2017-May-17 12:00N 39°12' W 010°06'1019.7
2017-May-17 11:30N 39°22' W 010°07'1019.8
2017-May-17 11:01N 39°32' W 010°07'1119.6
2017-May-17 10:25N 39°43' W 010°07'919.8
2017-May-17 09:57N 39°53' W 010°07'1619.9
2017-May-17 09:07N 40°09' W 010°07'220.0
2017-May-17 09:00N 40°11' W 010°07'1320.1
2017-May-17 08:20N 40°25' W 010°07'919.3
2017-May-17 07:54N 40°33' W 010°05'819.6
2017-May-17 07:31N 40°41' W 010°04'54018.3
2017-May-16 01:59N 49°02' W 005°21'919.7
2017-May-16 01:30N 49°08' W 005°10'1118.7
2017-May-16 00:54N 49°14' W 004°56'718.2
2017-May-16 00:30N 49°19' W 004°47'918.0
2017-May-16 00:00N 49°24' W 004°36'917.8
2017-May-15 23:29N 49°29' W 004°24'917.5
2017-May-15 23:00N 49°33' W 004°13'917.1
2017-May-15 22:28N 49°37' W 003°60'916.7
2017-May-15 21:55N 49°42' W 003°48'716.4
2017-May-15 21:28N 49°46' W 003°38'716.2
2017-May-15 21:00N 49°49' W 003°28'816.2
2017-May-15 20:30N 49°53' W 003°17'816.4
2017-May-15 20:00N 49°57' W 003°06'816.7
2017-May-15 19:31N 49°60' W 002°54'917.3
2017-May-15 19:00N 50°02' W 002°41'5619.4
2017-May-15 16:07N 50°19' W 001°17'220.3
2017-May-15 16:00N 50°20' W 001°14'1120.3
2017-May-15 15:29N 50°23' W 000°58'919.2
2017-May-15 15:00N 50°25' W 000°44'1818.3
2017-May-15 14:00N 50°29' W 000°16'917.6
2017-May-15 13:30N 50°31' W 000°03'817.0
2017-May-15 13:00N 50°33' E 000°10'816.4
2017-May-15 12:30N 50°35' E 000°23'816.1
2017-May-15 12:00N 50°37' E 000°35'815.8
2017-May-15 11:30N 50°42' E 000°45'816.3
2017-May-15 11:00N 50°47' E 000°55'917.1
2017-May-15 10:30N 50°52' E 001°06'918.1
2017-May-15 10:00N 50°58' E 001°16'1019.0
2017-May-15 09:30N 51°04' E 001°29'1019.4
2017-May-15 09:00N 51°10' E 001°40'918.6
2017-May-15 08:30N 51°17' E 001°50'917.5
2017-May-15 08:00N 51°24' E 001°59'816.6
2017-May-15 07:30N 51°21' E 002°11'816.7
2017-May-15 07:00N 51°22' E 002°24'917.2
2017-May-15 06:30N 51°23' E 002°38'510.9
2017-May-15 06:00N 51°24' E 002°47'613.0
2017-May-15 05:30N 51°25' E 002°57'816.0
2017-May-15 05:01N 51°24' E 003°10'815.8
2017-May-15 04:30N 51°25' E 003°22'713.8
2017-May-15 04:00N 51°26' E 003°33'4 8.5
2017-May-15 03:30N 51°26' E 003°40'611.3
2017-May-15 03:00N 51°22' E 003°45'510.2
2017-May-15 02:30N 51°21' E 003°54'510.4
2017-May-15 02:00N 51°26' E 003°58'4 8.2
2017-May-15 01:30N 51°23' E 004°03'510.5
2017-May-15 01:00N 51°24' E 004°11'4 8.8
2017-May-15 00:30N 51°21' E 004°16'0 0.6
2017-May-15 00:01N 51°21' E 004°16'0 0.0
2017-May-14 23:30N 51°21' E 004°16'0 0.0
2017-May-14 23:01N 51°21' E 004°16'0 0.0
2017-May-14 22:30N 51°21' E 004°16'0 0.0
2017-May-14 22:01N 51°21' E 004°16'0 0.0
2017-May-14 21:30N 51°21' E 004°16'0 0.0
2017-May-14 21:01N 51°21' E 004°16'0 0.0
2017-May-14 20:30N 51°21' E 004°16'0 0.0
2017-May-14 20:00N 51°21' E 004°16'0 0.0
2017-May-14 19:31N 51°21' E 004°16'0 0.0
2017-May-14 19:01N 51°21' E 004°16'0 0.0
2017-May-14 18:30N 51°21' E 004°16'0 0.0
2017-May-14 18:01N 51°21' E 004°16'0 0.0
2017-May-14 17:30N 51°21' E 004°16'0 0.0
2017-May-14 17:00N 51°21' E 004°16'0 0.0
2017-May-14 16:30N 51°21' E 004°16'0 0.0
2017-May-14 16:01N 51°21' E 004°16'0 0.0
2017-May-14 15:31N 51°21' E 004°16'0 0.0
2017-May-14 15:01N 51°21' E 004°16'0 0.0
2017-May-14 14:30N 51°21' E 004°16'0 0.0
2017-May-14 13:30N 51°21' E 004°16'0 0.0
2017-May-14 13:01N 51°21' E 004°16'0 0.0
2017-May-14 12:30N 51°21' E 004°16'0 0.0
2017-May-14 12:01N 51°21' E 004°16'0 0.0
2017-May-14 11:31N 51°21' E 004°16'0 0.0
2017-May-14 11:01N 51°21' E 004°16'0 0.0
2017-May-14 10:30N 51°21' E 004°16'0 0.0
2017-May-14 10:00N 51°21' E 004°16'0 0.0
2017-May-14 09:30N 51°21' E 004°16'0 0.0
2017-May-14 09:01N 51°21' E 004°16'0 0.0
2017-May-14 08:30N 51°21' E 004°16'0 0.0
2017-May-14 08:00N 51°21' E 004°16'0 0.0
2017-May-14 07:30N 51°21' E 004°16'0 0.0
2017-May-14 07:00N 51°21' E 004°16'0 0.0
2017-May-14 06:30N 51°21' E 004°16'0 0.0
2017-May-14 06:00N 51°21' E 004°16'0 0.0
2017-May-14 05:31N 51°21' E 004°16'0 0.0
2017-May-14 05:00N 51°21' E 004°16'0 0.0
2017-May-14 04:30N 51°21' E 004°16'0 0.0
2017-May-14 04:00N 51°21' E 004°16'0 0.0
2017-May-14 03:30N 51°21' E 004°16'0 0.0
2017-May-14 03:00N 51°21' E 004°16'0 0.4
2017-May-14 02:30N 51°21' E 004°16'3 5.1
2017-May-14 02:01N 51°22' E 004°13'510.2
2017-May-14 01:30N 51°22' E 004°05'510.4
2017-May-14 01:01N 51°25' E 003°58'713.6
2017-May-14 00:30N 51°21' E 003°50'713.1
2017-May-14 00:01N 51°25' E 003°42'510.6
2017-May-13 23:30N 51°25' E 003°33'816.6
2017-May-13 23:00N 51°24' E 003°20'817.0
2017-May-13 22:30N 51°24' E 003°07'510.2
2017-May-13 22:00N 51°27' E 003°00'1019.2
2017-May-13 21:30N 51°35' E 003°09'917.7
2017-May-13 21:00N 51°44' E 003°13'5 9.9
2017-May-13 20:31N 51°48' E 003°16'814.9
2017-May-13 20:00N 51°56' E 003°19'815.3
2017-May-13 19:30N 52°03' E 003°21'714.7
2017-May-13 19:00N 52°10' E 003°22'714.5
2017-May-13 18:30N 52°17' E 003°25'714.3
2017-May-13 18:00N 52°24' E 003°28'714.0
2017-May-13 17:30N 52°31' E 003°29'713.6
2017-May-13 17:00N 52°38' E 003°31'713.8
2017-May-13 16:30N 52°44' E 003°38'713.7
2017-May-13 16:00N 52°49' E 003°45'1514.2
2017-May-13 14:57N 53°00' E 004°02'715.3
2017-May-13 14:27N 53°05' E 004°12'1515.8
2017-May-13 13:30N 53°16' E 004°28'2014.9
2017-May-13 12:08N 53°31' E 004°51'215.9
2017-May-13 12:00N 53°32' E 004°55'815.6
2017-May-13 11:30N 53°34' E 005°07'815.1
2017-May-13 10:59N 53°37' E 005°20'815.0
2017-May-13 10:27N 53°39' E 005°32'715.0
2017-May-13 09:59N 53°42' E 005°43'713.5
2017-May-13 09:30N 53°44' E 005°54'2 3.8
2017-May-13 09:00N 53°45' E 005°57'5613.1
2017-May-13 04:44N 53°59' E 007°29'  

Dump ship's entire track history